Time;durP1;ratioP1;P1;durP2;ratioP2;P2;SDS_P1;SDS_P2;PMS_P1;PMS_P2;Temp;Humidity;BMP_temperature;BMP_pressure;BME280_temperature;BME280_humidity;BME280_pressure;Samples;Min_cycle;Max_cycle;Signal;HPM_P1;HPM_P2
2022/11/13 00:02:14;;;;;;;24.10;14.25;;;8.70;99.90;;;;;;5070900;28;20202;-76
2022/11/13 00:04:41;;;;;;;15.82;11.98;;;8.70;99.90;;;;;;5077331;28;20659;-74
2022/11/13 00:07:09;;;;;;;18.02;13.30;;;8.70;99.90;;;;;;5084310;28;20194;-75
2022/11/13 00:09:37;;;;;;;15.82;13.80;;;8.70;99.90;;;;;;5074634;28;20548;-75
2022/11/13 00:12:05;;;;;;;17.88;13.60;;;8.60;99.90;;;;;;5077032;28;20644;-74
2022/11/13 00:14:33;;;;;;;16.55;13.18;;;8.60;99.90;;;;;;5085725;28;20230;-74
2022/11/13 00:17:00;;;;;;;13.52;11.18;;;8.60;99.90;;;;;;5084820;28;20214;-76
2022/11/13 00:19:26;;;;;;;15.75;14.02;;;8.60;99.90;;;;;;5090201;28;20195;-73
2022/11/13 00:21:55;;;;;;;20.50;14.55;;;8.70;99.90;;;;;;5081487;28;20199;-74
2022/11/13 00:24:24;;;;;;;18.17;12.80;;;8.50;99.90;;;;;;5073344;28;20207;-73
2022/11/13 00:26:52;;;;;;;18.85;13.32;;;8.50;99.90;;;;;;5081299;28;20206;-72
2022/11/13 00:29:19;;;;;;;24.85;16.65;;;8.40;99.90;;;;;;5086642;28;20195;-73
2022/11/13 00:31:47;;;;;;;20.67;13.07;;;8.50;99.90;;;;;;5063075;28;20302;-74
2022/11/13 00:34:13;;;;;;;16.27;12.48;;;8.40;99.90;;;;;;5072555;28;20249;-73
2022/11/13 00:36:40;;;;;;;14.63;12.48;;;8.40;99.90;;;;;;5087193;28;20234;-74
2022/11/13 00:39:08;;;;;;;18.20;14.45;;;8.30;99.90;;;;;;5075194;28;20727;-73
2022/11/13 00:41:36;;;;;;;16.52;13.52;;;8.20;99.90;;;;;;5077532;28;20206;-73
2022/11/13 00:44:03;;;;;;;20.80;13.73;;;8.00;99.90;;;;;;5073149;28;20302;-74
2022/11/13 00:46:31;;;;;;;24.90;14.85;;;8.00;99.90;;;;;;5082085;28;20561;-74
2022/11/13 00:48:59;;;;;;;17.35;13.90;;;7.90;99.90;;;;;;5082849;28;20304;-74
2022/11/13 00:51:25;;;;;;;14.20;12.45;;;7.80;99.90;;;;;;5072905;28;20616;-74
2022/11/13 00:53:53;;;;;;;13.48;11.85;;;7.70;99.90;;;;;;5080177;28;20636;-74
2022/11/13 00:56:20;;;;;;;16.30;12.32;;;7.70;99.90;;;;;;5084542;28;20225;-75
2022/11/13 00:58:48;;;;;;;15.80;12.23;;;7.80;99.90;;;;;;5086270;28;20194;-74
2022/11/13 01:01:17;;;;;;;16.15;13.82;;;7.80;99.90;;;;;;5079616;28;20288;-74
2022/11/13 01:03:45;;;;;;;16.30;13.98;;;7.70;99.90;;;;;;5087852;28;20632;-74
2022/11/13 01:06:14;;;;;;;18.45;14.65;;;7.70;99.90;;;;;;5078209;28;20675;-74
2022/11/13 01:08:42;;;;;;;17.13;14.30;;;7.60;99.90;;;;;;5078086;28;20536;-74
2022/11/13 01:11:12;;;;;;;17.85;14.93;;;7.50;99.90;;;;;;5078544;28;20699;-75
2022/11/13 01:13:39;;;;;;;16.30;14.55;;;7.50;99.90;;;;;;5078985;28;20225;-74
2022/11/13 01:16:10;;;;;;;20.75;14.43;;;7.50;99.90;;;;;;5072159;28;20206;-75
2022/11/13 01:18:37;;;;;;;17.48;13.90;;;7.40;99.90;;;;;;5076804;28;20233;-74
2022/11/13 01:21:06;;;;;;;15.70;13.55;;;7.40;99.90;;;;;;5070601;28;20300;-75
2022/11/13 01:23:33;;;;;;;18.60;14.15;;;7.50;99.90;;;;;;5077292;28;20238;-73
2022/11/13 01:26:11;;;;;;;19.48;15.90;;;7.60;99.90;;;;;;5087105;28;20273;-73
2022/11/13 01:28:39;;;;;;;22.50;16.55;;;7.50;99.90;;;;;;5068953;28;20285;-73
2022/11/13 01:31:09;;;;;;;18.70;15.50;;;7.50;99.90;;;;;;5081275;28;20318;-74
2022/11/13 01:33:36;;;;;;;18.73;16.00;;;7.40;99.90;;;;;;5086212;28;20220;-75
2022/11/13 01:36:05;;;;;;;15.77;14.07;;;7.40;99.90;;;;;;5081027;28;20219;-74
2022/11/13 01:38:32;;;;;;;19.17;13.48;;;7.40;99.90;;;;;;5088059;28;20291;-74
2022/11/13 01:40:59;;;;;;;18.40;15.05;;;7.40;99.90;;;;;;5070946;28;20227;-74
2022/11/13 01:43:29;;;;;;;18.92;13.43;;;7.40;99.90;;;;;;5082796;28;20225;-74
2022/11/13 01:46:35;;;;;;;24.17;15.55;;;7.30;99.90;;;;;;5078408;28;20240;-74
2022/11/13 01:49:15;;;;;;;17.17;13.52;;;7.30;99.90;;;;;;5073638;28;20563;-74
2022/11/13 01:51:47;;;;;;;14.82;13.15;;;7.40;99.90;;;;;;5064759;28;20200;-74
2022/11/13 01:54:18;;;;;;;16.77;13.32;;;7.40;99.90;;;;;;5076473;28;20218;-74
2022/11/13 01:56:46;;;;;;;17.05;13.50;;;7.40;99.90;;;;;;5072294;28;20228;-74
2022/11/13 01:59:15;;;;;;;16.45;13.23;;;7.40;99.90;;;;;;5075514;28;20652;-74
2022/11/13 02:01:44;;;;;;;18.20;12.43;;;7.40;99.90;;;;;;5087210;28;20286;-73
2022/11/13 02:04:11;;;;;;;15.32;13.70;;;7.50;99.90;;;;;;5076832;28;20221;-74
2022/11/13 02:06:42;;;;;;;16.20;14.38;;;7.50;99.90;;;;;;5086290;28;20316;-73
2022/11/13 02:09:10;;;;;;;16.17;13.93;;;7.50;99.90;;;;;;5082075;28;20241;-71
2022/11/13 02:11:45;;;;;;;15.90;14.23;;;7.40;99.90;;;;;;5083204;28;20237;-71
2022/11/13 02:14:13;;;;;;;19.95;12.77;;;7.40;99.90;;;;;;5063442;28;20304;-73
2022/11/13 02:16:43;;;;;;;16.70;13.75;;;7.40;99.90;;;;;;5076539;28;20603;-75
2022/11/13 02:19:14;;;;;;;19.52;14.45;;;7.40;99.90;;;;;;5086069;28;20221;-75
2022/11/13 02:21:48;;;;;;;16.08;13.55;;;7.40;99.90;;;;;;5078949;28;20189;-75
2022/11/13 02:24:24;;;;;;;13.02;11.25;;;7.40;99.90;;;;;;5085625;28;20231;-74
2022/11/13 02:26:53;;;;;;;14.57;12.23;;;7.40;99.90;;;;;;5083522;28;20202;-74
2022/11/13 02:29:20;;;;;;;19.40;13.27;;;7.50;99.90;;;;;;5071487;28;20194;-74
2022/11/13 02:31:47;;;;;;;14.02;12.52;;;7.40;99.90;;;;;;5083695;28;20198;-73
2022/11/13 02:34:14;;;;;;;14.88;12.40;;;7.50;99.90;;;;;;5079088;28;20316;-74
2022/11/13 02:36:42;;;;;;;18.55;13.00;;;7.50;99.90;;;;;;5068104;28;20548;-74
2022/11/13 02:39:12;;;;;;;14.32;11.32;;;7.50;99.90;;;;;;5084687;28;20230;-74
2022/11/13 02:41:42;;;;;;;15.57;13.35;;;7.50;99.90;;;;;;5060131;28;20253;-74
2022/11/13 02:44:09;;;;;;;17.73;12.93;;;7.50;99.90;;;;;;5078783;28;20541;-73
2022/11/13 02:46:36;;;;;;;14.27;12.45;;;7.60;99.90;;;;;;5079916;28;20276;-73
2022/11/13 02:49:03;;;;;;;16.05;12.25;;;7.60;99.90;;;;;;5060014;28;20284;-75
2022/11/13 02:51:30;;;;;;;13.68;11.65;;;7.70;99.90;;;;;;5077349;28;20216;-74
2022/11/13 02:53:57;;;;;;;13.10;11.25;;;7.70;99.90;;;;;;5087374;28;20264;-74
2022/11/13 02:56:24;;;;;;;15.70;12.07;;;7.60;99.90;;;;;;5082762;28;20314;-72
2022/11/13 02:58:52;;;;;;;13.73;11.48;;;7.60;99.90;;;;;;5078107;28;20293;-72
2022/11/13 03:01:19;;;;;;;11.75;9.50;;;7.50;99.90;;;;;;5086849;28;20232;-74
2022/11/13 03:03:46;;;;;;;17.25;13.05;;;7.60;99.90;;;;;;5085583;28;20645;-74
2022/11/13 03:06:13;;;;;;;16.92;12.27;;;7.60;99.90;;;;;;5086075;28;20195;-74
2022/11/13 03:08:40;;;;;;;14.82;12.30;;;7.60;99.90;;;;;;5082897;28;20219;-74
2022/11/13 03:11:10;;;;;;;17.90;12.32;;;7.60;99.90;;;;;;5084149;28;20589;-74
2022/11/13 03:13:37;;;;;;;14.80;10.60;;;7.50;99.90;;;;;;5082251;28;20217;-74
2022/11/13 03:16:11;;;;;;;12.85;10.75;;;7.50;99.90;;;;;;5065601;28;20282;-74
2022/11/13 03:18:38;;;;;;;16.48;12.13;;;7.60;99.90;;;;;;5070608;28;20751;-74
2022/11/13 03:21:11;;;;;;;15.00;12.23;;;7.60;99.90;;;;;;5090318;28;20232;-74
2022/11/13 03:23:38;;;;;;;15.15;11.98;;;7.50;99.90;;;;;;5082288;28;20305;-74
2022/11/13 03:26:07;;;;;;;15.25;11.38;;;7.50;99.90;;;;;;5079055;28;20224;-75
2022/11/13 03:28:34;;;;;;;16.25;11.57;;;7.50;99.90;;;;;;5074447;28;20290;-73
2022/11/13 03:31:04;;;;;;;14.30;11.60;;;7.60;99.90;;;;;;5085557;28;20198;-74
2022/11/13 03:33:32;;;;;;;18.85;11.35;;;7.50;99.90;;;;;;5085112;28;20307;-74
2022/11/13 03:36:00;;;;;;;16.55;11.90;;;7.50;99.90;;;;;;5077780;28;20285;-74
2022/11/13 03:38:27;;;;;;;14.60;11.98;;;7.50;99.90;;;;;;5084632;28;20738;-74
2022/11/13 03:40:54;;;;;;;13.40;10.57;;;7.50;99.90;;;;;;5083747;28;20405;-73
2022/11/13 03:43:21;;;;;;;14.35;11.40;;;7.50;99.90;;;;;;5083779;28;20218;-73
2022/11/13 03:45:48;;;;;;;16.50;11.02;;;7.50;99.90;;;;;;5082267;28;20299;-73
2022/11/13 03:48:15;;;;;;;13.45;11.65;;;7.50;99.90;;;;;;5085706;28;20652;-73
2022/11/13 03:50:45;;;;;;;16.55;12.38;;;7.50;99.90;;;;;;5073970;28;20284;-74
2022/11/13 03:53:12;;;;;;;17.92;12.23;;;7.40;99.90;;;;;;5091571;28;20264;-71
2022/11/13 03:55:50;;;;;;;19.83;14.00;;;7.30;99.90;;;;;;5079787;28;20596;-73
2022/11/13 03:58:18;;;;;;;18.30;13.98;;;7.30;99.90;;;;;;5082375;28;20315;-73
2022/11/13 04:00:45;;;;;;;15.43;13.10;;;7.20;99.90;;;;;;5074890;28;20698;-73
2022/11/13 04:03:12;;;;;;;13.63;11.88;;;7.30;99.90;;;;;;5077086;28;20241;-73
2022/11/13 04:05:42;;;;;;;20.08;13.52;;;7.30;99.90;;;;;;5078163;28;20198;-72
2022/11/13 04:08:10;;;;;;;12.80;11.32;;;7.30;99.90;;;;;;5080883;28;20203;-73
2022/11/13 04:10:38;;;;;;;16.00;11.60;;;7.30;99.90;;;;;;5087684;28;20371;-73
2022/11/13 04:13:05;;;;;;;13.82;11.85;;;7.30;99.90;;;;;;5073578;28;20276;-73
2022/11/13 04:15:32;;;;;;;14.00;12.50;;;7.20;99.90;;;;;;5069210;28;20252;-72
2022/11/13 04:17:59;;;;;;;14.30;12.57;;;7.20;99.90;;;;;;5085151;28;20299;-73
2022/11/13 04:20:26;;;;;;;14.43;10.93;;;7.20;99.90;;;;;;5077238;28;20229;-74
2022/11/13 04:22:53;;;;;;;15.75;13.10;;;7.30;99.90;;;;;;5081715;28;20230;-73
2022/11/13 04:25:22;;;;;;;15.88;12.55;;;7.30;99.90;;;;;;5083144;28;20291;-72
2022/11/13 04:27:49;;;;;;;14.82;12.43;;;7.20;99.90;;;;;;5082803;28;20225;-73
2022/11/13 04:30:16;;;;;;;17.08;13.15;;;7.20;99.90;;;;;;5072822;28;20286;-73
2022/11/13 04:32:43;;;;;;;12.45;11.25;;;7.30;99.90;;;;;;5084232;28;20607;-73
2022/11/13 04:35:10;;;;;;;16.00;12.80;;;7.20;99.90;;;;;;5087080;28;20288;-73
2022/11/13 04:37:38;;;;;;;27.60;15.50;;;7.10;99.90;;;;;;5078846;28;20666;-72
2022/11/13 04:40:06;;;;;;;14.23;12.68;;;7.10;99.90;;;;;;5076523;28;20209;-73
2022/11/13 04:42:48;;;;;;;16.45;12.98;;;7.10;99.90;;;;;;5077396;28;20222;-72
2022/11/13 04:45:16;;;;;;;20.00;13.02;;;7.00;99.90;;;;;;5064284;28;20201;-72
2022/11/13 04:47:44;;;;;;;16.38;13.48;;;7.10;99.90;;;;;;5076352;28;20280;-74
2022/11/13 04:50:12;;;;;;;19.35;13.10;;;7.00;99.90;;;;;;5071113;28;20194;-73
2022/11/13 04:52:38;;;;;;;18.10;13.65;;;7.00;99.90;;;;;;5063290;28;20312;-74
2022/11/13 04:55:07;;;;;;;17.75;15.35;;;7.00;99.90;;;;;;5084219;28;20207;-74
2022/11/13 04:57:35;;;;;;;22.02;14.70;;;6.90;99.90;;;;;;5074172;28;20248;-74
2022/11/13 05:00:04;;;;;;;15.68;13.02;;;7.00;99.90;;;;;;5078465;28;20189;-74
2022/11/13 05:02:32;;;;;;;18.48;13.98;;;7.00;99.90;;;;;;5082789;28;20308;-72
2022/11/13 05:04:59;;;;;;;14.90;13.35;;;7.00;99.90;;;;;;5081301;28;20218;-74
2022/11/13 05:07:27;;;;;;;20.45;15.02;;;7.00;99.90;;;;;;5086809;28;20742;-75
2022/11/13 05:09:54;;;;;;;16.25;13.35;;;6.90;99.90;;;;;;5080781;28;20273;-74
2022/11/13 05:12:21;;;;;;;16.88;13.98;;;6.90;99.90;;;;;;5081672;28;20224;-72
2022/11/13 05:14:49;;;;;;;18.65;14.15;;;6.80;99.90;;;;;;5072254;28;20308;-72
2022/11/13 05:17:16;;;;;;;20.45;14.95;;;6.80;99.90;;;;;;5077833;28;20731;-74
2022/11/13 05:19:43;;;;;;;16.27;13.90;;;7.00;99.90;;;;;;5078122;28;20306;-73
2022/11/13 05:22:10;;;;;;;16.27;13.82;;;6.90;99.90;;;;;;5080385;28;20288;-72
2022/11/13 05:24:37;;;;;;;16.58;13.82;;;6.80;99.90;;;;;;5075817;28;20713;-73
2022/11/13 05:27:04;;;;;;;27.50;15.27;;;6.80;99.90;;;;;;5068349;28;20633;-74
2022/11/13 05:29:31;;;;;;;21.40;15.75;;;6.80;99.90;;;;;;5077874;28;20221;-74
2022/11/13 05:31:59;;;;;;;19.33;15.73;;;6.80;99.90;;;;;;5072857;28;20272;-74
2022/11/13 05:34:26;;;;;;;20.58;15.10;;;6.80;99.90;;;;;;5080321;28;20237;-74
2022/11/13 05:36:53;;;;;;;18.40;14.50;;;6.80;99.90;;;;;;5094703;28;20209;-74
2022/11/13 05:39:20;;;;;;;17.65;15.00;;;6.90;99.90;;;;;;5093588;28;20240;-73
2022/11/13 05:41:47;;;;;;;19.75;16.10;;;6.80;99.90;;;;;;5081919;28;20228;-73
2022/11/13 05:44:13;;;;;;;16.40;14.68;;;6.70;99.90;;;;;;5074637;28;20264;-73
2022/11/13 05:46:40;;;;;;;19.10;15.30;;;6.70;99.90;;;;;;5083559;28;20233;-73
2022/11/13 05:49:10;;;;;;;20.65;15.55;;;6.80;99.90;;;;;;5084374;28;20300;-74
2022/11/13 05:51:37;;;;;;;18.83;15.07;;;6.70;99.90;;;;;;5078091;28;20226;-74
2022/11/13 05:54:05;;;;;;;24.63;15.27;;;6.70;99.90;;;;;;5068389;28;20320;-74
2022/11/13 05:56:34;;;;;;;22.83;16.60;;;6.70;99.90;;;;;;5074326;28;20203;-73
2022/11/13 05:59:02;;;;;;;19.83;15.60;;;6.70;99.90;;;;;;5075917;28;20249;-73
2022/11/13 06:01:30;;;;;;;25.17;16.80;;;6.70;99.90;;;;;;5082834;28;20228;-73
2022/11/13 06:03:59;;;;;;;21.58;16.40;;;6.60;99.90;;;;;;5079113;28;20222;-73
2022/11/13 06:06:28;;;;;;;19.45;14.60;;;6.60;99.90;;;;;;5081527;28;20271;-73
2022/11/13 06:08:57;;;;;;;24.63;16.67;;;6.60;99.90;;;;;;5075634;28;20194;-75
2022/11/13 06:11:27;;;;;;;23.27;16.33;;;6.50;99.90;;;;;;5079350;28;20524;-74
2022/11/13 06:13:55;;;;;;;19.55;16.45;;;6.50;99.90;;;;;;5083453;28;20296;-74
2022/11/13 06:16:23;;;;;;;17.58;15.68;;;6.50;99.90;;;;;;5070742;28;20229;-76
2022/11/13 06:18:54;;;;;;;20.55;15.82;;;6.60;99.90;;;;;;5082765;28;20218;-74
2022/11/13 06:21:25;;;;;;;19.55;15.45;;;6.60;99.90;;;;;;5077282;28;20259;-74
2022/11/13 06:23:53;;;;;;;18.90;15.77;;;6.60;99.90;;;;;;5068955;28;20234;-72
2022/11/13 06:26:22;;;;;;;20.40;17.33;;;6.60;99.90;;;;;;5080662;28;20225;-74
2022/11/13 06:28:49;;;;;;;19.75;16.30;;;6.60;99.90;;;;;;5086221;28;20193;-74
2022/11/13 06:31:19;;;;;;;19.58;16.08;;;6.60;99.90;;;;;;5075466;28;20323;-74
2022/11/13 06:33:46;;;;;;;23.98;15.80;;;6.50;99.90;;;;;;5079873;28;20296;-72
2022/11/13 06:36:15;;;;;;;22.63;17.95;;;6.50;99.90;;;;;;5081961;28;20662;-73
2022/11/13 06:38:44;;;;;;;17.13;15.23;;;6.50;99.90;;;;;;5069985;28;20226;-74
2022/11/13 06:41:14;;;;;;;16.55;14.60;;;6.50;99.90;;;;;;5079658;28;20283;-74
2022/11/13 06:43:42;;;;;;;23.60;17.60;;;6.60;99.90;;;;;;5078631;28;20215;-74
2022/11/13 06:46:12;;;;;;;23.00;17.55;;;6.60;99.90;;;;;;5071408;28;20194;-74
2022/11/13 06:48:39;;;;;;;19.17;15.30;;;6.60;99.90;;;;;;5074497;28;20225;-74
2022/11/13 06:51:09;;;;;;;19.48;14.50;;;6.60;99.90;;;;;;5078445;28;20602;-74
2022/11/13 06:53:36;;;;;;;19.58;15.88;;;6.60;99.90;;;;;;5080299;28;20224;-74
2022/11/13 06:56:06;;;;;;;23.52;17.60;;;6.50;99.90;;;;;;5082379;28;20219;-73
2022/11/13 06:58:34;;;;;;;20.42;17.30;;;6.50;99.90;;;;;;5075402;28;20201;-73
2022/11/13 07:01:05;;;;;;;25.27;18.25;;;6.60;99.90;;;;;;5074020;28;20300;-72
2022/11/13 07:03:32;;;;;;;23.88;16.27;;;6.50;99.90;;;;;;5074782;28;20221;-75
2022/11/13 07:06:01;;;;;;;24.55;15.82;;;6.60;99.90;;;;;;5077820;28;20197;-74
2022/11/13 07:08:28;;;;;;;20.52;18.27;;;6.60;99.90;;;;;;5076582;28;20203;-75
2022/11/13 07:10:56;;;;;;;16.10;14.35;;;6.70;99.90;;;;;;5071366;28;20191;-74
2022/11/13 07:13:24;;;;;;;21.20;16.65;;;6.70;99.90;;;;;;5071938;28;20341;-74
2022/11/13 07:15:55;;;;;;;23.05;16.33;;;6.80;99.90;;;;;;5076257;28;20205;-74
2022/11/13 07:18:22;;;;;;;20.30;16.17;;;6.70;99.90;;;;;;5078972;28;20240;-73
2022/11/13 07:20:49;;;;;;;20.30;16.60;;;6.70;99.90;;;;;;5091652;28;20202;-74
2022/11/13 07:23:16;;;;;;;20.38;16.25;;;6.80;99.90;;;;;;5076629;28;20260;-74
2022/11/13 07:25:43;;;;;;;22.85;16.80;;;6.90;99.90;;;;;;5075223;28;20258;-75
2022/11/13 07:28:10;;;;;;;18.35;16.38;;;7.00;99.90;;;;;;5082726;28;20229;-73
2022/11/13 07:30:37;;;;;;;22.42;17.60;;;7.10;99.90;;;;;;5076597;28;20193;-75
2022/11/13 07:33:05;;;;;;;21.92;17.77;;;7.10;99.90;;;;;;5078346;28;20666;-75
2022/11/13 07:35:32;;;;;;;20.95;15.82;;;7.20;99.90;;;;;;5076235;28;20199;-76
2022/11/13 07:37:59;;;;;;;21.55;16.20;;;7.40;99.90;;;;;;5075557;28;20239;-74
2022/11/13 07:40:26;;;;;;;21.52;16.33;;;7.60;99.90;;;;;;5082572;28;20262;-74
2022/11/13 07:42:58;;;;;;;22.42;16.42;;;8.10;99.90;;;;;;5078445;28;20307;-75
2022/11/13 07:45:26;;;;;;;18.92;14.82;;;9.00;99.90;;;;;;5070450;28;20212;-74
2022/11/13 07:47:57;;;;;;;15.75;12.18;;;10.00;99.90;;;;;;5078661;28;20288;-72
2022/11/13 07:50:27;;;;;;;14.93;12.60;;;10.90;99.90;;;;;;5073918;28;20197;-74
2022/11/13 07:52:58;;;;;;;16.33;14.45;;;11.60;99.90;;;;;;5081191;28;20256;-73
2022/11/13 07:55:26;;;;;;;14.65;12.77;;;12.20;99.90;;;;;;5077655;28;20238;-72
2022/11/13 07:57:57;;;;;;;16.92;11.07;;;13.20;99.90;;;;;;5078042;28;20191;-73
2022/11/13 08:00:24;;;;;;;12.40;11.10;;;14.10;99.90;;;;;;5078398;28;20255;-74
2022/11/13 08:02:51;;;;;;;14.13;11.63;;;14.70;99.90;;;;;;5072215;28;20226;-73
2022/11/13 08:05:18;;;;;;;12.67;10.70;;;15.20;99.90;;;;;;5083952;28;20439;-73
2022/11/13 08:07:48;;;;;;;13.73;12.23;;;16.20;99.80;;;;;;5077196;28;20472;-74
2022/11/13 08:10:16;;;;;;;13.97;12.57;;;16.60;97.40;;;;;;5082579;28;20944;-74
2022/11/13 08:12:43;;;;;;;13.30;10.33;;;17.00;96.00;;;;;;5077299;28;20452;-73
2022/11/13 08:15:10;;;;;;;14.57;13.07;;;17.60;94.60;;;;;;5074285;28;20519;-72
2022/11/13 08:17:37;;;;;;;15.97;12.63;;;17.80;93.10;;;;;;5073238;28;20567;-73
2022/11/13 08:20:05;;;;;;;14.20;11.97;;;17.80;93.00;;;;;;5063562;28;20480;-73
2022/11/13 08:22:33;;;;;;;16.50;11.60;;;17.90;92.40;;;;;;5071118;28;20495;-73
2022/11/13 08:25:01;;;;;;;11.90;10.63;;;18.20;91.90;;;;;;5081647;28;20476;-74
2022/11/13 08:27:29;;;;;;;15.50;11.90;;;18.20;91.70;;;;;;5077702;28;20529;-74
2022/11/13 08:29:56;;;;;;;11.97;10.37;;;18.50;91.80;;;;;;5081433;28;20446;-72
2022/11/13 08:32:23;;;;;;;12.73;11.43;;;19.30;90.10;;;;;;5081983;28;20493;-73
2022/11/13 08:34:50;;;;;;;15.83;14.30;;;19.60;88.60;;;;;;5081864;28;20441;-72
2022/11/13 08:37:18;;;;;;;13.90;12.50;;;19.40;88.40;;;;;;5086888;28;20483;-73
2022/11/13 08:39:45;;;;;;;13.60;12.20;;;20.00;87.80;;;;;;5079013;28;20472;-73
2022/11/13 08:42:13;;;;;;;15.30;11.47;;;20.40;85.80;;;;;;5071825;28;20491;-74
2022/11/13 08:44:40;;;;;;;14.07;12.57;;;20.80;84.50;;;;;;5071351;28;20473;-72
2022/11/13 08:47:08;;;;;;;15.20;13.50;;;21.20;82.50;;;;;;5068834;28;20448;-73
2022/11/13 08:49:36;;;;;;;14.33;11.50;;;21.20;82.50;;;;;;5065404;28;20434;-73
2022/11/13 08:52:04;;;;;;;14.90;12.80;;;21.50;81.10;;;;;;5068787;28;20477;-72
2022/11/13 08:54:32;;;;;;;13.90;12.50;;;21.70;80.90;;;;;;5067782;28;20805;-72
2022/11/13 08:56:59;;;;;;;12.43;11.13;;;21.00;80.40;;;;;;5073127;28;20476;-72
2022/11/13 08:59:28;;;;;;;15.90;13.20;;;20.50;82.60;;;;;;5074368;28;20563;-72
2022/11/13 09:02:00;;;;;;;15.03;13.53;;;20.80;82.60;;;;;;5063838;28;20472;-72
2022/11/13 09:04:29;;;;;;;14.50;12.57;;;21.00;82.00;;;;;;5084956;28;20519;-74
2022/11/13 09:06:56;;;;;;;12.87;11.60;;;20.30;82.90;;;;;;5074389;28;20430;-73
2022/11/13 09:09:23;;;;;;;20.10;13.40;;;20.10;83.40;;;;;;5069769;28;20439;-74
2022/11/13 09:11:51;;;;;;;13.90;12.37;;;19.60;83.80;;;;;;5084686;28;20433;-74
2022/11/13 09:14:18;;;;;;;14.10;12.53;;;19.10;85.20;;;;;;5083084;28;20561;-73
2022/11/13 09:16:46;;;;;;;15.20;13.43;;;18.90;86.20;;;;;;5079700;28;20992;-75
2022/11/13 09:19:13;;;;;;;17.70;14.10;;;19.40;85.80;;;;;;5087491;28;20503;-74
2022/11/13 09:21:40;;;;;;;14.80;13.17;;;19.70;85.50;;;;;;5079553;28;20521;-74
2022/11/13 09:24:08;;;;;;;14.43;12.07;;;20.00;83.90;;;;;;5078712;28;20544;-73
2022/11/13 09:26:35;;;;;;;14.93;12.90;;;20.50;83.30;;;;;;5071782;28;20437;-74
2022/11/13 09:29:02;;;;;;;15.27;13.77;;;20.40;81.80;;;;;;5080012;28;20477;-74
2022/11/13 09:31:29;;;;;;;17.27;14.33;;;19.80;83.20;;;;;;5077276;28;20443;-73
2022/11/13 09:33:57;;;;;;;14.83;13.27;;;19.30;84.00;;;;;;5081221;28;20535;-73
2022/11/13 09:36:24;;;;;;;17.97;14.73;;;18.60;85.50;;;;;;5084512;28;20511;-75
2022/11/13 09:38:51;;;;;;;13.97;12.57;;;17.80;87.30;;;;;;5084462;28;20512;-74
2022/11/13 09:41:22;;;;;;;16.83;14.10;;;18.00;89.30;;;;;;5072090;28;20442;-74
2022/11/13 09:43:54;;;;;;;14.23;12.77;;;18.00;89.70;;;;;;5082373;28;20452;-75
2022/11/13 09:46:35;;;;;;;14.03;12.53;;;18.00;89.70;;;;;;5088162;28;20462;-73
2022/11/13 09:49:10;;;;;;;14.97;13.40;;;18.10;89.40;;;;;;5081163;28;20469;-75
2022/11/13 09:51:38;;;;;;;15.00;13.50;;;18.40;88.90;;;;;;5086460;28;20463;-73
2022/11/13 09:54:07;;;;;;;14.87;12.53;;;18.60;87.70;;;;;;5079101;28;20549;-74
2022/11/13 09:56:39;;;;;;;15.97;14.33;;;18.30;88.80;;;;;;5082519;28;20440;-74
2022/11/13 09:59:15;;;;;;;18.80;14.30;;;17.10;90.20;;;;;;5082350;28;20834;-74
2022/11/13 10:01:52;;;;;;;15.53;13.70;;;17.00;91.00;;;;;;5084129;28;20873;-74
2022/11/13 10:04:30;;;;;;;16.20;12.60;;;16.70;91.30;;;;;;5066957;28;20486;-73
2022/11/13 10:07:18;;;;;;;14.20;11.83;;;16.50;92.10;;;;;;5090880;28;20435;-75
2022/11/13 10:10:10;;;;;;;17.73;15.40;;;16.50;92.50;;;;;;5079929;28;20477;-74
2022/11/13 10:12:37;;;;;;;14.23;12.70;;;16.60;92.20;;;;;;5089099;28;20464;-73
2022/11/13 10:15:06;;;;;;;15.20;13.40;;;16.80;92.40;;;;;;5078526;28;20440;-75
2022/11/13 10:17:38;;;;;;;15.67;13.60;;;16.80;92.20;;;;;;5084107;28;20481;-73
2022/11/13 10:20:14;;;;;;;14.50;13.00;;;16.80;92.20;;;;;;5081172;28;21025;-74
2022/11/13 10:22:47;;;;;;;16.37;14.67;;;16.80;92.40;;;;;;5052665;28;20465;-73
2022/11/13 10:25:18;;;;;;;14.50;12.73;;;16.60;92.70;;;;;;5082937;28;20467;-74
2022/11/13 10:27:48;;;;;;;18.45;15.77;;;16.30;92.90;;;;;;5062777;28;20474;-74
2022/11/13 10:30:18;;;;;;;15.13;12.80;;;16.00;93.50;;;;;;5075950;28;20228;-74
2022/11/13 10:32:46;;;;;;;17.85;14.52;;;15.50;94.20;;;;;;5086018;28;20274;-75
2022/11/13 10:35:51;;;;;;;17.00;14.40;;;15.20;95.00;;;;;;5082189;28;20223;-72
2022/11/13 10:38:25;;;;;;;17.23;14.70;;;14.80;96.00;;;;;;5065868;28;20214;-74
2022/11/13 10:40:52;;;;;;;21.35;16.40;;;14.70;96.50;;;;;;5071767;28;20344;-76
2022/11/13 10:43:22;;;;;;;18.48;15.27;;;14.50;97.10;;;;;;5081548;28;20257;-74
2022/11/13 10:45:56;;;;;;;19.45;15.68;;;14.20;97.80;;;;;;5091591;28;20202;-74
2022/11/13 10:48:25;;;;;;;20.92;15.60;;;14.00;99.00;;;;;;5077866;28;20218;-76
2022/11/13 10:50:57;;;;;;;16.67;14.95;;;13.90;99.70;;;;;;5077024;28;20361;-73
2022/11/13 10:53:26;;;;;;;22.08;17.48;;;13.70;99.90;;;;;;5074979;28;20328;-75
2022/11/13 10:55:57;;;;;;;22.27;18.55;;;13.70;99.90;;;;;;5081730;28;20221;-74
2022/11/13 10:58:24;;;;;;;19.70;17.65;;;13.50;99.90;;;;;;5068272;28;20223;-73
2022/11/13 11:00:51;;;;;;;22.42;17.88;;;13.40;99.90;;;;;;5080495;28;20264;-73
2022/11/13 11:03:21;;;;;;;17.73;14.15;;;13.30;99.90;;;;;;5080115;28;20578;-73
2022/11/13 11:05:59;;;;;;;15.77;14.10;;;13.30;99.90;;;;;;5078266;28;20293;-73
2022/11/13 11:08:30;;;;;;;19.08;14.52;;;13.10;99.90;;;;;;5077707;28;20225;-74
2022/11/13 11:13:45;;;;;;;14.40;12.82;;;13.00;99.90;;;;;;5067591;28;20230;-74
2022/11/13 11:16:18;;;;;;;17.58;13.65;;;13.00;99.90;;;;;;5078953;28;20239;-73
2022/11/13 11:18:51;;;;;;;15.50;12.75;;;13.10;99.90;;;;;;5073139;28;20579;-75
2022/11/13 11:21:23;;;;;;;17.08;12.30;;;13.10;99.90;;;;;;5069992;28;20219;-74
2022/11/13 11:23:56;;;;;;;17.75;13.07;;;13.30;99.90;;;;;;5074379;28;20230;-75
2022/11/13 11:26:29;;;;;;;12.73;11.43;;;13.30;99.90;;;;;;5073302;28;20636;-74
2022/11/13 11:29:13;;;;;;;18.77;14.43;;;13.30;99.90;;;;;;5074885;28;20202;-73
2022/11/13 11:31:47;;;;;;;12.43;11.02;;;13.40;99.90;;;;;;5065344;28;20281;-74
2022/11/13 11:34:19;;;;;;;16.60;14.32;;;13.40;99.90;;;;;;5081477;28;20217;-74
2022/11/13 11:36:55;;;;;;;19.90;16.00;;;13.40;99.90;;;;;;5073776;28;20222;-75
2022/11/13 11:39:29;;;;;;;17.80;13.75;;;13.40;99.90;;;;;;5072971;28;20208;-74
2022/11/13 11:42:07;;;;;;;17.40;12.18;;;13.50;99.90;;;;;;5070516;28;20542;-73
2022/11/13 11:44:40;;;;;;;15.90;13.70;;;13.50;99.90;;;;;;5059789;28;20196;-74
2022/11/13 11:47:14;;;;;;;18.80;13.02;;;13.50;99.90;;;;;;5081065;28;20281;-74
2022/11/13 11:49:42;;;;;;;15.02;11.25;;;13.50;99.90;;;;;;5067452;28;20192;-74
2022/11/13 11:52:25;;;;;;;15.25;11.90;;;13.50;99.90;;;;;;5074911;28;20640;-77
2022/11/13 11:55:03;;;;;;;17.63;13.35;;;13.50;99.90;;;;;;5061359;28;20195;-74
2022/11/13 11:57:54;;;;;;;13.68;11.70;;;13.60;99.90;;;;;;5069072;28;20320;-74
2022/11/13 12:00:21;;;;;;;14.52;12.25;;;13.70;99.90;;;;;;5079663;28;20726;-75
2022/11/13 12:03:20;;;;;;;12.30;11.00;;;13.70;99.90;;;;;;5077133;28;20261;-74
2022/11/13 12:05:58;;;;;;;13.43;11.65;;;13.70;99.90;;;;;;5083947;28;20206;-74
2022/11/13 12:08:39;;;;;;;12.77;11.30;;;13.80;99.90;;;;;;5045619;28;20660;-74
2022/11/13 12:11:14;;;;;;;14.43;10.98;;;13.70;99.90;;;;;;5061506;28;20182;-75
2022/11/13 12:13:48;;;;;;;14.80;12.52;;;13.70;99.90;;;;;;5059567;28;20824;-73
2022/11/13 12:16:23;;;;;;;13.02;11.52;;;13.70;99.90;;;;;;5085813;28;20285;-73
2022/11/13 12:19:00;;;;;;;14.70;12.27;;;13.60;99.90;;;;;;5080693;28;20255;-74
2022/11/13 12:21:33;;;;;;;12.63;10.77;;;13.60;99.90;;;;;;5052239;28;20222;-73
2022/11/13 12:24:18;;;;;;;13.18;11.77;;;13.50;99.90;;;;;;5087345;28;20641;-74
2022/11/13 12:26:51;;;;;;;15.23;12.07;;;13.40;99.90;;;;;;5075446;28;20268;-75
2022/11/13 12:29:36;;;;;;;13.15;10.50;;;13.40;99.90;;;;;;5079031;28;20234;-73
2022/11/13 12:32:16;;;;;;;13.60;11.93;;;13.40;99.90;;;;;;5084241;28;20241;-73
2022/11/13 12:34:47;;;;;;;14.07;11.88;;;13.50;99.90;;;;;;5082508;28;20225;-73
2022/11/13 12:37:26;;;;;;;16.27;13.30;;;13.40;99.90;;;;;;5077022;28;20268;-74
2022/11/13 12:39:57;;;;;;;12.10;10.45;;;13.40;99.90;;;;;;5079970;28;20283;-74
2022/11/13 12:42:33;;;;;;;12.60;11.35;;;13.40;99.90;;;;;;5084048;28;20225;-73
2022/11/13 12:45:09;;;;;;;12.70;11.50;;;13.40;99.90;;;;;;5073280;28;20277;-73
2022/11/13 12:47:36;;;;;;;12.77;10.45;;;13.30;99.90;;;;;;5061171;28;20194;-73
2022/11/13 12:50:06;;;;;;;15.90;11.30;;;13.30;99.90;;;;;;5079119;28;20227;-74